sensor_id;sensor_type;location;lat;lon;timestamp;pressure;altitude;pressure_sealevel;temperature;humidity
81812;BME280;71243;51.848;5.768;2024-02-28T00:01:56;102113.78;;;3.74;93.06
81812;BME280;71243;51.848;5.768;2024-02-28T00:04:21;102109.25;;;3.78;92.71
81812;BME280;71243;51.848;5.768;2024-02-28T00:06:47;102100.81;;;3.54;92.83
81812;BME280;71243;51.848;5.768;2024-02-28T00:09:12;102091.09;;;3.02;94.59
81812;BME280;71243;51.848;5.768;2024-02-28T00:11:45;102096.16;;;2.86;95.92
81812;BME280;71243;51.848;5.768;2024-02-28T00:14:11;102096.63;;;2.96;96.20
81812;BME280;71243;51.848;5.768;2024-02-28T00:16:36;102105.22;;;3.16;95.53
81812;BME280;71243;51.848;5.768;2024-02-28T00:19:01;102105.34;;;3.32;95.05
81812;BME280;71243;51.848;5.768;2024-02-28T00:21:27;102104.84;;;3.43;94.13
81812;BME280;71243;51.848;5.768;2024-02-28T00:23:52;102103.38;;;3.37;94.53
81812;BME280;71243;51.848;5.768;2024-02-28T00:26:17;102109.16;;;3.44;94.27
81812;BME280;71243;51.848;5.768;2024-02-28T00:28:42;102112.47;;;3.47;94.20
81812;BME280;71243;51.848;5.768;2024-02-28T00:31:07;102100.06;;;3.52;94.17
81812;BME280;71243;51.848;5.768;2024-02-28T00:33:33;102099.59;;;3.61;93.63
81812;BME280;71243;51.848;5.768;2024-02-28T00:35:58;102102.28;;;3.60;93.58
81812;BME280;71243;51.848;5.768;2024-02-28T00:38:23;102104.47;;;3.69;92.91
81812;BME280;71243;51.848;5.768;2024-02-28T00:40:48;102102.53;;;3.72;92.55
81812;BME280;71243;51.848;5.768;2024-02-28T00:43:13;102094.69;;;3.72;92.24
81812;BME280;71243;51.848;5.768;2024-02-28T00:45:39;102092.97;;;3.54;92.85
81812;BME280;71243;51.848;5.768;2024-02-28T00:48:04;102099.66;;;3.60;92.76
81812;BME280;71243;51.848;5.768;2024-02-28T00:50:30;102100.59;;;3.59;92.54
81812;BME280;71243;51.848;5.768;2024-02-28T00:52:55;102100.25;;;3.66;92.30
81812;BME280;71243;51.848;5.768;2024-02-28T00:55:20;102105.22;;;3.71;92.03
81812;BME280;71243;51.848;5.768;2024-02-28T00:57:45;102102.69;;;3.69;92.00
81812;BME280;71243;51.848;5.768;2024-02-28T01:00:11;102100.53;;;3.60;92.18
81812;BME280;71243;51.848;5.768;2024-02-28T01:02:36;102111.25;;;3.54;92.60
81812;BME280;71243;51.848;5.768;2024-02-28T01:05:02;102103.50;;;3.53;92.45
81812;BME280;71243;51.848;5.768;2024-02-28T01:07:27;102100.59;;;3.40;93.10
81812;BME280;71243;51.848;5.768;2024-02-28T01:09:52;102100.28;;;3.29;93.17
81812;BME280;71243;51.848;5.768;2024-02-28T01:12:17;102103.97;;;3.06;94.55
81812;BME280;71243;51.848;5.768;2024-02-28T01:14:43;102097.03;;;2.87;95.35
81812;BME280;71243;51.848;5.768;2024-02-28T01:17:08;102111.47;;;2.55;96.58
81812;BME280;71243;51.848;5.768;2024-02-28T01:19:33;102102.16;;;2.30;97.75
81812;BME280;71243;51.848;5.768;2024-02-28T01:21:58;102102.00;;;2.53;98.15
81812;BME280;71243;51.848;5.768;2024-02-28T01:24:24;102102.56;;;2.61;97.05
81812;BME280;71243;51.848;5.768;2024-02-28T01:26:49;102100.44;;;2.49;97.54
81812;BME280;71243;51.848;5.768;2024-02-28T01:29:14;102099.09;;;2.60;97.74
81812;BME280;71243;51.848;5.768;2024-02-28T01:31:39;102088.88;;;2.74;96.87
81812;BME280;71243;51.848;5.768;2024-02-28T01:34:04;102100.41;;;2.89;96.54
81812;BME280;71243;51.848;5.768;2024-02-28T01:36:30;102087.06;;;2.95;95.74
81812;BME280;71243;51.848;5.768;2024-02-28T01:38:55;102091.09;;;3.02;95.65
81812;BME280;71243;51.848;5.768;2024-02-28T01:41:20;102099.47;;;3.08;95.31
81812;BME280;71243;51.848;5.768;2024-02-28T01:43:45;102095.75;;;3.14;95.27
81812;BME280;71243;51.848;5.768;2024-02-28T01:46:22;102098.16;;;3.18;94.58
81812;BME280;71243;51.848;5.768;2024-02-28T01:48:47;102099.69;;;3.22;94.32
81812;BME280;71243;51.848;5.768;2024-02-28T01:51:13;102111.78;;;3.25;94.13
81812;BME280;71243;51.848;5.768;2024-02-28T01:53:38;102113.69;;;3.21;93.72
81812;BME280;71243;51.848;5.768;2024-02-28T01:56:04;102105.94;;;3.20;93.62
81812;BME280;71243;51.848;5.768;2024-02-28T01:58:29;102110.19;;;2.84;93.98
81812;BME280;71243;51.848;5.768;2024-02-28T02:00:55;102107.63;;;2.44;95.20
81812;BME280;71243;51.848;5.768;2024-02-28T02:03:21;102105.13;;;2.20;95.97
81812;BME280;71243;51.848;5.768;2024-02-28T02:05:46;102112.69;;;2.06;96.44
81812;BME280;71243;51.848;5.768;2024-02-28T02:08:11;102108.13;;;2.11;96.53
81812;BME280;71243;51.848;5.768;2024-02-28T02:10:37;102115.25;;;2.28;96.55
81812;BME280;71243;51.848;5.768;2024-02-28T02:13:06;102110.28;;;2.22;96.16
81812;BME280;71243;51.848;5.768;2024-02-28T02:15:31;102115.38;;;2.25;95.88
81812;BME280;71243;51.848;5.768;2024-02-28T02:17:56;102113.75;;;2.22;95.62
81812;BME280;71243;51.848;5.768;2024-02-28T02:20:22;102119.06;;;1.99;96.69
81812;BME280;71243;51.848;5.768;2024-02-28T02:22:47;102108.28;;;1.87;97.14
81812;BME280;71243;51.848;5.768;2024-02-28T02:25:13;102108.78;;;1.75;97.47
81812;BME280;71243;51.848;5.768;2024-02-28T02:27:38;102114.97;;;1.72;98.54
81812;BME280;71243;51.848;5.768;2024-02-28T02:30:04;102106.41;;;1.90;97.50
81812;BME280;71243;51.848;5.768;2024-02-28T02:32:30;102111.09;;;1.82;97.52
81812;BME280;71243;51.848;5.768;2024-02-28T02:34:55;102114.78;;;1.77;97.70
81812;BME280;71243;51.848;5.768;2024-02-28T02:37:20;102106.31;;;1.72;98.16
81812;BME280;71243;51.848;5.768;2024-02-28T02:39:45;102111.88;;;1.84;97.75
81812;BME280;71243;51.848;5.768;2024-02-28T02:42:10;102112.53;;;1.89;97.58
81812;BME280;71243;51.848;5.768;2024-02-28T02:44:36;102103.44;;;1.99;97.12
81812;BME280;71243;51.848;5.768;2024-02-28T02:47:01;102109.69;;;2.15;96.68
81812;BME280;71243;51.848;5.768;2024-02-28T02:49:26;102110.63;;;2.14;95.79
81812;BME280;71243;51.848;5.768;2024-02-28T02:51:51;102096.97;;;2.08;95.75
81812;BME280;71243;51.848;5.768;2024-02-28T02:54:16;102106.19;;;2.16;95.65
81812;BME280;71243;51.848;5.768;2024-02-28T02:56:42;102106.78;;;2.23;95.69
81812;BME280;71243;51.848;5.768;2024-02-28T02:59:07;102112.06;;;2.21;95.30
81812;BME280;71243;51.848;5.768;2024-02-28T03:01:32;102120.34;;;2.11;94.87
81812;BME280;71243;51.848;5.768;2024-02-28T03:03:57;102118.28;;;1.97;95.61
81812;BME280;71243;51.848;5.768;2024-02-28T03:06:22;102119.47;;;2.10;95.79
81812;BME280;71243;51.848;5.768;2024-02-28T03:08:48;102121.31;;;1.87;96.14
81812;BME280;71243;51.848;5.768;2024-02-28T03:11:13;102116.16;;;1.85;96.41
81812;BME280;71243;51.848;5.768;2024-02-28T03:13:38;102113.19;;;1.94;96.62
81812;BME280;71243;51.848;5.768;2024-02-28T03:16:04;102109.41;;;1.81;96.72
81812;BME280;71243;51.848;5.768;2024-02-28T03:18:29;102109.84;;;1.71;96.86
81812;BME280;71243;51.848;5.768;2024-02-28T03:20:54;102112.28;;;1.52;97.87
81812;BME280;71243;51.848;5.768;2024-02-28T03:23:20;102116.25;;;1.41;97.89
81812;BME280;71243;51.848;5.768;2024-02-28T03:25:45;102113.69;;;1.39;98.54
81812;BME280;71243;51.848;5.768;2024-02-28T03:28:10;102114.13;;;1.50;98.37
81812;BME280;71243;51.848;5.768;2024-02-28T03:30:35;102114.78;;;1.55;98.54
81812;BME280;71243;51.848;5.768;2024-02-28T03:33:00;102107.25;;;1.69;98.14
81812;BME280;71243;51.848;5.768;2024-02-28T03:35:26;102110.28;;;1.80;97.74
81812;BME280;71243;51.848;5.768;2024-02-28T03:37:51;102110.13;;;1.85;97.28
81812;BME280;71243;51.848;5.768;2024-02-28T03:40:16;102108.38;;;1.64;98.15
81812;BME280;71243;51.848;5.768;2024-02-28T03:42:41;102117.09;;;1.63;98.18
81812;BME280;71243;51.848;5.768;2024-02-28T03:45:07;102112.91;;;1.59;98.45
81812;BME280;71243;51.848;5.768;2024-02-28T03:47:32;102112.31;;;1.74;98.03
81812;BME280;71243;51.848;5.768;2024-02-28T03:49:57;102108.38;;;1.64;98.17
81812;BME280;71243;51.848;5.768;2024-02-28T03:52:23;102110.50;;;1.54;98.76
81812;BME280;71243;51.848;5.768;2024-02-28T03:54:48;102106.31;;;1.50;99.09
81812;BME280;71243;51.848;5.768;2024-02-28T03:57:14;102107.81;;;1.56;99.05
81812;BME280;71243;51.848;5.768;2024-02-28T03:59:40;102108.53;;;1.59;98.77
81812;BME280;71243;51.848;5.768;2024-02-28T04:02:06;102110.00;;;1.66;98.49
81812;BME280;71243;51.848;5.768;2024-02-28T04:04:31;102105.50;;;1.70;98.46
81812;BME280;71243;51.848;5.768;2024-02-28T04:06:57;102105.88;;;1.82;97.92
81812;BME280;71243;51.848;5.768;2024-02-28T04:09:22;102107.13;;;1.94;97.37
81812;BME280;71243;51.848;5.768;2024-02-28T04:11:47;102105.31;;;1.96;97.09
81812;BME280;71243;51.848;5.768;2024-02-28T04:14:13;102106.59;;;2.07;96.91
81812;BME280;71243;51.848;5.768;2024-02-28T04:16:42;102106.66;;;2.06;96.43
81812;BME280;71243;51.848;5.768;2024-02-28T04:19:07;102114.19;;;2.12;96.10
81812;BME280;71243;51.848;5.768;2024-02-28T04:21:32;102110.22;;;2.03;96.23
81812;BME280;71243;51.848;5.768;2024-02-28T04:23:57;102116.59;;;1.96;96.42
81812;BME280;71243;51.848;5.768;2024-02-28T04:26:23;102122.28;;;2.06;96.53
81812;BME280;71243;51.848;5.768;2024-02-28T04:28:48;102128.75;;;1.96;96.76
81812;BME280;71243;51.848;5.768;2024-02-28T04:31:13;102133.81;;;2.00;96.46
81812;BME280;71243;51.848;5.768;2024-02-28T04:33:38;102130.41;;;1.98;95.98
81812;BME280;71243;51.848;5.768;2024-02-28T04:36:04;102139.25;;;1.94;96.23
81812;BME280;71243;51.848;5.768;2024-02-28T04:38:29;102138.53;;;1.91;96.51
81812;BME280;71243;51.848;5.768;2024-02-28T04:40:54;102134.00;;;1.74;97.26
81812;BME280;71243;51.848;5.768;2024-02-28T04:43:19;102133.31;;;1.69;98.23
81812;BME280;71243;51.848;5.768;2024-02-28T04:45:44;102137.13;;;1.61;98.18
81812;BME280;71243;51.848;5.768;2024-02-28T04:48:10;102132.25;;;1.53;98.73
81812;BME280;71243;51.848;5.768;2024-02-28T04:50:35;102138.53;;;1.69;98.48
81812;BME280;71243;51.848;5.768;2024-02-28T04:53:00;102134.66;;;1.79;98.01
81812;BME280;71243;51.848;5.768;2024-02-28T04:55:25;102140.53;;;1.63;98.52
81812;BME280;71243;51.848;5.768;2024-02-28T04:57:50;102148.03;;;1.49;99.69
81812;BME280;71243;51.848;5.768;2024-02-28T05:00:17;102138.13;;;1.58;99.55
81812;BME280;71243;51.848;5.768;2024-02-28T05:02:42;102137.91;;;1.63;99.22
81812;BME280;71243;51.848;5.768;2024-02-28T05:05:07;102136.66;;;1.73;99.11
81812;BME280;71243;51.848;5.768;2024-02-28T05:07:33;102133.50;;;1.86;98.40
81812;BME280;71243;51.848;5.768;2024-02-28T05:09:58;102135.81;;;1.72;98.86
81812;BME280;71243;51.848;5.768;2024-02-28T05:12:23;102132.16;;;1.76;98.83
81812;BME280;71243;51.848;5.768;2024-02-28T05:14:48;102144.47;;;1.94;98.27
81812;BME280;71243;51.848;5.768;2024-02-28T05:17:14;102153.56;;;2.06;98.36
81812;BME280;71243;51.848;5.768;2024-02-28T05:19:39;102150.69;;;2.12;97.39
81812;BME280;71243;51.848;5.768;2024-02-28T05:22:04;102153.78;;;2.00;97.82
81812;BME280;71243;51.848;5.768;2024-02-28T05:24:29;102159.88;;;2.00;97.56
81812;BME280;71243;51.848;5.768;2024-02-28T05:26:55;102157.34;;;2.19;97.15
81812;BME280;71243;51.848;5.768;2024-02-28T05:29:20;102157.09;;;2.25;96.55
81812;BME280;71243;51.848;5.768;2024-02-28T05:31:45;102155.75;;;2.15;97.10
81812;BME280;71243;51.848;5.768;2024-02-28T05:34:10;102157.28;;;2.20;96.55
81812;BME280;71243;51.848;5.768;2024-02-28T05:36:35;102149.34;;;2.23;96.38
81812;BME280;71243;51.848;5.768;2024-02-28T05:39:01;102152.69;;;2.05;96.88
81812;BME280;71243;51.848;5.768;2024-02-28T05:41:26;102158.22;;;1.98;97.26
81812;BME280;71243;51.848;5.768;2024-02-28T05:43:51;102157.31;;;1.99;97.16
81812;BME280;71243;51.848;5.768;2024-02-28T05:46:17;102161.97;;;1.91;97.29
81812;BME280;71243;51.848;5.768;2024-02-28T05:48:44;102158.50;;;1.90;97.32
81812;BME280;71243;51.848;5.768;2024-02-28T05:51:10;102167.69;;;2.00;97.19
81812;BME280;71243;51.848;5.768;2024-02-28T05:53:36;102151.78;;;2.06;97.14
81812;BME280;71243;51.848;5.768;2024-02-28T05:56:01;102161.69;;;1.98;96.81
81812;BME280;71243;51.848;5.768;2024-02-28T05:58:27;102164.88;;;2.05;96.91
81812;BME280;71243;51.848;5.768;2024-02-28T06:00:52;102169.56;;;1.97;97.20
81812;BME280;71243;51.848;5.768;2024-02-28T06:03:17;102172.25;;;1.94;97.23
81812;BME280;71243;51.848;5.768;2024-02-28T06:05:42;102165.66;;;1.85;98.30
81812;BME280;71243;51.848;5.768;2024-02-28T06:08:08;102165.31;;;1.94;97.91
81812;BME280;71243;51.848;5.768;2024-02-28T06:10:33;102152.53;;;1.88;97.63
81812;BME280;71243;51.848;5.768;2024-02-28T06:12:58;102163.56;;;1.95;97.62
81812;BME280;71243;51.848;5.768;2024-02-28T06:15:23;102158.19;;;1.78;98.45
81812;BME280;71243;51.848;5.768;2024-02-28T06:17:49;102178.59;;;1.88;98.00
81812;BME280;71243;51.848;5.768;2024-02-28T06:20:14;102176.22;;;1.82;97.45
81812;BME280;71243;51.848;5.768;2024-02-28T06:22:39;102175.44;;;1.80;97.49
81812;BME280;71243;51.848;5.768;2024-02-28T06:25:05;102184.66;;;1.67;97.93
81812;BME280;71243;51.848;5.768;2024-02-28T06:27:30;102181.06;;;1.47;98.66
81812;BME280;71243;51.848;5.768;2024-02-28T06:29:55;102176.50;;;1.53;98.46
81812;BME280;71243;51.848;5.768;2024-02-28T06:32:23;102178.13;;;1.56;98.24
81812;BME280;71243;51.848;5.768;2024-02-28T06:34:48;102189.59;;;1.73;97.56
81812;BME280;71243;51.848;5.768;2024-02-28T06:37:14;102182.81;;;1.69;97.40
81812;BME280;71243;51.848;5.768;2024-02-28T06:39:39;102197.19;;;1.79;97.10
81812;BME280;71243;51.848;5.768;2024-02-28T06:42:04;102196.53;;;1.74;96.78
81812;BME280;71243;51.848;5.768;2024-02-28T06:44:30;102198.63;;;1.65;96.67
81812;BME280;71243;51.848;5.768;2024-02-28T06:46:55;102204.50;;;1.70;97.25
81812;BME280;71243;51.848;5.768;2024-02-28T06:49:20;102199.94;;;1.75;97.53
81812;BME280;71243;51.848;5.768;2024-02-28T06:51:45;102209.63;;;1.71;98.09
81812;BME280;71243;51.848;5.768;2024-02-28T06:54:10;102203.53;;;1.72;97.69
81812;BME280;71243;51.848;5.768;2024-02-28T06:56:36;102217.16;;;1.79;97.45
81812;BME280;71243;51.848;5.768;2024-02-28T06:59:01;102204.78;;;1.62;98.41
81812;BME280;71243;51.848;5.768;2024-02-28T07:01:26;102209.22;;;1.82;97.92
81812;BME280;71243;51.848;5.768;2024-02-28T07:03:52;102209.91;;;1.65;98.66
81812;BME280;71243;51.848;5.768;2024-02-28T07:06:17;102209.63;;;1.71;98.76
81812;BME280;71243;51.848;5.768;2024-02-28T07:08:42;102217.63;;;1.90;98.23
81812;BME280;71243;51.848;5.768;2024-02-28T07:11:14;102221.84;;;1.92;97.78
81812;BME280;71243;51.848;5.768;2024-02-28T07:13:40;102218.44;;;1.69;99.18
81812;BME280;71243;51.848;5.768;2024-02-28T07:16:05;102222.72;;;1.70;99.50
81812;BME280;71243;51.848;5.768;2024-02-28T07:18:31;102235.28;;;1.82;98.95
81812;BME280;71243;51.848;5.768;2024-02-28T07:20:56;102237.94;;;1.80;99.06
81812;BME280;71243;51.848;5.768;2024-02-28T07:23:21;102238.09;;;1.99;98.27
81812;BME280;71243;51.848;5.768;2024-02-28T07:25:46;102238.09;;;1.99;98.10
81812;BME280;71243;51.848;5.768;2024-02-28T07:28:12;102245.06;;;1.98;98.38
81812;BME280;71243;51.848;5.768;2024-02-28T07:30:37;102244.09;;;2.01;98.60
81812;BME280;71243;51.848;5.768;2024-02-28T07:33:05;102242.47;;;2.20;97.86
81812;BME280;71243;51.848;5.768;2024-02-28T07:35:30;102242.84;;;2.11;98.07
81812;BME280;71243;51.848;5.768;2024-02-28T07:37:55;102243.50;;;2.16;98.41
81812;BME280;71243;51.848;5.768;2024-02-28T07:40:20;102243.44;;;2.17;98.67
81812;BME280;71243;51.848;5.768;2024-02-28T07:42:46;102246.34;;;2.10;99.14
81812;BME280;71243;51.848;5.768;2024-02-28T07:45:11;102254.09;;;2.11;99.31
81812;BME280;71243;51.848;5.768;2024-02-28T07:47:37;102250.69;;;2.31;99.02
81812;BME280;71243;51.848;5.768;2024-02-28T07:50:02;102251.19;;;2.41;98.75
81812;BME280;71243;51.848;5.768;2024-02-28T07:52:27;102247.22;;;2.52;98.29
81812;BME280;71243;51.848;5.768;2024-02-28T07:54:53;102264.38;;;2.58;97.82
81812;BME280;71243;51.848;5.768;2024-02-28T07:57:18;102271.91;;;2.44;98.51
81812;BME280;71243;51.848;5.768;2024-02-28T07:59:43;102270.31;;;2.41;99.13
81812;BME280;71243;51.848;5.768;2024-02-28T08:02:09;102272.22;;;2.36;98.86
81812;BME280;71243;51.848;5.768;2024-02-28T08:04:35;102278.72;;;2.48;98.35
81812;BME280;71243;51.848;5.768;2024-02-28T08:07:00;102276.09;;;2.48;99.15
81812;BME280;71243;51.848;5.768;2024-02-28T08:09:25;102281.81;;;2.57;98.53
81812;BME280;71243;51.848;5.768;2024-02-28T08:11:51;102284.22;;;2.62;98.22
81812;BME280;71243;51.848;5.768;2024-02-28T08:14:16;102290.16;;;2.65;98.28
81812;BME280;71243;51.848;5.768;2024-02-28T08:16:41;102299.38;;;2.74;97.66
81812;BME280;71243;51.848;5.768;2024-02-28T08:19:06;102294.22;;;2.72;98.28
81812;BME280;71243;51.848;5.768;2024-02-28T08:21:31;102292.91;;;2.82;98.77
81812;BME280;71243;51.848;5.768;2024-02-28T08:23:57;102300.50;;;2.88;97.92
81812;BME280;71243;51.848;5.768;2024-02-28T08:26:23;102299.34;;;2.95;97.78
81812;BME280;71243;51.848;5.768;2024-02-28T08:28:48;102287.97;;;2.96;97.76
81812;BME280;71243;51.848;5.768;2024-02-28T08:31:13;102294.47;;;3.08;98.23
81812;BME280;71243;51.848;5.768;2024-02-28T08:33:39;102303.84;;;3.12;97.90
81812;BME280;71243;51.848;5.768;2024-02-28T08:36:06;102303.59;;;3.18;97.82
81812;BME280;71243;51.848;5.768;2024-02-28T08:38:31;102306.06;;;3.21;98.13
81812;BME280;71243;51.848;5.768;2024-02-28T08:40:56;102305.94;;;3.24;98.09
81812;BME280;71243;51.848;5.768;2024-02-28T08:43:21;102313.31;;;3.14;98.69
81812;BME280;71243;51.848;5.768;2024-02-28T08:45:46;102306.94;;;3.40;98.11
81812;BME280;71243;51.848;5.768;2024-02-28T08:48:12;102301.88;;;3.37;98.49
81812;BME280;71243;51.848;5.768;2024-02-28T08:50:37;102315.88;;;3.36;98.26
81812;BME280;71243;51.848;5.768;2024-02-28T08:53:02;102308.38;;;3.47;98.34
81812;BME280;71243;51.848;5.768;2024-02-28T08:55:28;102313.81;;;3.43;98.10
81812;BME280;71243;51.848;5.768;2024-02-28T08:57:53;102318.34;;;3.39;98.39
81812;BME280;71243;51.848;5.768;2024-02-28T09:00:18;102307.94;;;3.38;98.85
81812;BME280;71243;51.848;5.768;2024-02-28T09:02:43;102301.22;;;3.52;99.20
81812;BME280;71243;51.848;5.768;2024-02-28T09:05:08;102301.50;;;3.65;98.82
81812;BME280;71243;51.848;5.768;2024-02-28T09:07:34;102306.00;;;3.61;98.82
81812;BME280;71243;51.848;5.768;2024-02-28T09:09:59;102302.56;;;3.79;98.32
81812;BME280;71243;51.848;5.768;2024-02-28T09:12:24;102307.44;;;3.68;98.94
81812;BME280;71243;51.848;5.768;2024-02-28T09:14:49;102305.28;;;3.78;99.19
81812;BME280;71243;51.848;5.768;2024-02-28T09:17:15;102309.81;;;3.93;98.05
81812;BME280;71243;51.848;5.768;2024-02-28T09:19:40;102299.84;;;4.01;98.63
81812;BME280;71243;51.848;5.768;2024-02-28T09:22:05;102308.25;;;4.07;98.24
81812;BME280;71243;51.848;5.768;2024-02-28T09:24:30;102299.41;;;4.10;98.44
81812;BME280;71243;51.848;5.768;2024-02-28T09:26:55;102305.19;;;4.16;98.06
81812;BME280;71243;51.848;5.768;2024-02-28T09:29:21;102309.53;;;4.17;98.59
81812;BME280;71243;51.848;5.768;2024-02-28T09:31:46;102300.84;;;4.17;97.58
81812;BME280;71243;51.848;5.768;2024-02-28T09:34:11;102302.25;;;4.24;97.49
81812;BME280;71243;51.848;5.768;2024-02-28T09:36:42;102297.28;;;4.18;98.02
81812;BME280;71243;51.848;5.768;2024-02-28T09:39:08;102300.75;;;4.18;98.98
81812;BME280;71243;51.848;5.768;2024-02-28T09:41:33;102306.47;;;4.26;98.24
81812;BME280;71243;51.848;5.768;2024-02-28T09:44:00;102297.91;;;4.23;98.56
81812;BME280;71243;51.848;5.768;2024-02-28T09:46:27;102295.16;;;4.26;99.37
81812;BME280;71243;51.848;5.768;2024-02-28T09:48:54;102306.59;;;4.42;98.02
81812;BME280;71243;51.848;5.768;2024-02-28T09:51:21;102295.97;;;4.45;98.27
81812;BME280;71243;51.848;5.768;2024-02-28T09:53:46;102297.06;;;4.58;97.74
81812;BME280;71243;51.848;5.768;2024-02-28T09:56:12;102294.16;;;4.64;97.51
81812;BME280;71243;51.848;5.768;2024-02-28T09:58:38;102297.19;;;4.74;97.86
81812;BME280;71243;51.848;5.768;2024-02-28T10:01:04;102300.72;;;4.90;97.03
81812;BME280;71243;51.848;5.768;2024-02-28T10:03:31;102300.88;;;4.87;96.89
81812;BME280;71243;51.848;5.768;2024-02-28T10:05:57;102310.66;;;4.83;96.86
81812;BME280;71243;51.848;5.768;2024-02-28T10:08:22;102306.03;;;4.88;96.58
81812;BME280;71243;51.848;5.768;2024-02-28T10:10:48;102299.31;;;4.83;97.28
81812;BME280;71243;51.848;5.768;2024-02-28T10:13:15;102311.25;;;4.71;97.75
81812;BME280;71243;51.848;5.768;2024-02-28T10:15:41;102318.34;;;4.86;97.64
81812;BME280;71243;51.848;5.768;2024-02-28T10:18:06;102315.72;;;4.86;98.02
81812;BME280;71243;51.848;5.768;2024-02-28T10:20:31;102308.44;;;4.93;97.32
81812;BME280;71243;51.848;5.768;2024-02-28T10:22:56;102315.53;;;5.08;96.94
81812;BME280;71243;51.848;5.768;2024-02-28T10:25:22;102315.75;;;5.03;97.56
81812;BME280;71243;51.848;5.768;2024-02-28T10:27:47;102314.19;;;5.16;96.75
81812;BME280;71243;51.848;5.768;2024-02-28T10:30:12;102310.53;;;5.03;97.16
81812;BME280;71243;51.848;5.768;2024-02-28T10:32:48;102312.59;;;5.14;97.39
81812;BME280;71243;51.848;5.768;2024-02-28T10:35:17;102306.56;;;5.29;96.62
81812;BME280;71243;51.848;5.768;2024-02-28T10:37:42;102301.19;;;5.32;96.56
81812;BME280;71243;51.848;5.768;2024-02-28T10:40:09;102305.19;;;5.39;96.45
81812;BME280;71243;51.848;5.768;2024-02-28T10:42:36;102306.09;;;5.38;97.12
81812;BME280;71243;51.848;5.768;2024-02-28T10:45:02;102298.53;;;5.49;96.80
81812;BME280;71243;51.848;5.768;2024-02-28T10:47:28;102296.91;;;5.46;96.98
81812;BME280;71243;51.848;5.768;2024-02-28T10:49:53;102296.63;;;5.68;96.40
81812;BME280;71243;51.848;5.768;2024-02-28T10:52:21;102296.31;;;5.74;96.24
81812;BME280;71243;51.848;5.768;2024-02-28T10:54:53;102301.75;;;5.87;95.91
81812;BME280;71243;51.848;5.768;2024-02-28T10:57:19;102301.13;;;5.82;96.43
81812;BME280;71243;51.848;5.768;2024-02-28T10:59:45;102296.59;;;5.85;96.16
81812;BME280;71243;51.848;5.768;2024-02-28T11:02:11;102290.69;;;5.97;95.91
81812;BME280;71243;51.848;5.768;2024-02-28T11:04:37;102280.81;;;6.02;96.57
81812;BME280;71243;51.848;5.768;2024-02-28T11:07:02;102287.34;;;6.11;96.18
81812;BME280;71243;51.848;5.768;2024-02-28T11:09:28;102292.13;;;6.18;96.28
81812;BME280;71243;51.848;5.768;2024-02-28T11:11:54;102281.91;;;6.29;96.16
81812;BME280;71243;51.848;5.768;2024-02-28T11:14:21;102284.09;;;6.37;96.24
81812;BME280;71243;51.848;5.768;2024-02-28T11:16:46;102271.97;;;6.34;96.43
81812;BME280;71243;51.848;5.768;2024-02-28T11:19:21;102272.41;;;6.42;96.29
81812;BME280;71243;51.848;5.768;2024-02-28T11:21:52;102270.59;;;6.58;96.09
81812;BME280;71243;51.848;5.768;2024-02-28T11:24:18;102269.81;;;6.72;95.82
81812;BME280;71243;51.848;5.768;2024-02-28T11:26:43;102267.41;;;6.83;95.00
81812;BME280;71243;51.848;5.768;2024-02-28T11:29:08;102265.34;;;6.88;94.47
81812;BME280;71243;51.848;5.768;2024-02-28T11:31:34;102265.03;;;6.79;95.66
81812;BME280;71243;51.848;5.768;2024-02-28T11:33:59;102270.06;;;6.97;94.95
81812;BME280;71243;51.848;5.768;2024-02-28T11:36:24;102263.75;;;6.86;94.84
81812;BME280;71243;51.848;5.768;2024-02-28T11:38:50;102264.06;;;6.95;95.34
81812;BME280;71243;51.848;5.768;2024-02-28T11:41:25;102267.56;;;7.10;94.93
81812;BME280;71243;51.848;5.768;2024-02-28T11:43:50;102265.84;;;6.95;95.15
81812;BME280;71243;51.848;5.768;2024-02-28T11:46:16;102263.78;;;7.00;95.72
81812;BME280;71243;51.848;5.768;2024-02-28T11:48:42;102256.88;;;7.13;94.87
81812;BME280;71243;51.848;5.768;2024-02-28T11:51:07;102245.69;;;7.09;95.05
81812;BME280;71243;51.848;5.768;2024-02-28T11:53:33;102245.63;;;7.25;94.83
81812;BME280;71243;51.848;5.768;2024-02-28T11:55:58;102241.31;;;7.38;94.15
81812;BME280;71243;51.848;5.768;2024-02-28T11:58:23;102240.06;;;7.43;93.99
81812;BME280;71243;51.848;5.768;2024-02-28T12:00:49;102229.09;;;7.51;94.42
81812;BME280;71243;51.848;5.768;2024-02-28T12:03:19;102235.75;;;7.56;93.96
81812;BME280;71243;51.848;5.768;2024-02-28T12:05:44;102233.41;;;7.66;93.05
81812;BME280;71243;51.848;5.768;2024-02-28T12:08:11;102236.59;;;7.71;93.08
81812;BME280;71243;51.848;5.768;2024-02-28T12:10:36;102227.41;;;7.64;92.83
81812;BME280;71243;51.848;5.768;2024-02-28T12:13:01;102234.88;;;7.70;92.68
81812;BME280;71243;51.848;5.768;2024-02-28T12:15:30;102227.00;;;7.70;92.85
81812;BME280;71243;51.848;5.768;2024-02-28T12:17:55;102225.09;;;7.86;92.59
81812;BME280;71243;51.848;5.768;2024-02-28T12:20:20;102215.63;;;7.84;91.58
81812;BME280;71243;51.848;5.768;2024-02-28T12:22:46;102219.53;;;8.05;90.97
81812;BME280;71243;51.848;5.768;2024-02-28T12:25:11;102218.38;;;8.09;91.00
81812;BME280;71243;51.848;5.768;2024-02-28T12:27:36;102217.09;;;7.88;91.27
81812;BME280;71243;51.848;5.768;2024-02-28T12:30:02;102221.00;;;7.82;91.76
81812;BME280;71243;51.848;5.768;2024-02-28T12:32:27;102210.34;;;7.98;91.97
81812;BME280;71243;51.848;5.768;2024-02-28T12:34:52;102211.47;;;7.94;91.42
81812;BME280;71243;51.848;5.768;2024-02-28T12:37:17;102207.06;;;7.94;91.56
81812;BME280;71243;51.848;5.768;2024-02-28T12:39:43;102199.00;;;8.10;91.18
81812;BME280;71243;51.848;5.768;2024-02-28T12:42:08;102203.16;;;8.14;91.29
81812;BME280;71243;51.848;5.768;2024-02-28T12:44:33;102205.78;;;8.14;90.90
81812;BME280;71243;51.848;5.768;2024-02-28T12:46:58;102196.72;;;8.18;90.88
81812;BME280;71243;51.848;5.768;2024-02-28T12:49:23;102209.22;;;8.28;91.26
81812;BME280;71243;51.848;5.768;2024-02-28T12:51:49;102195.69;;;8.47;90.35